DLH6RX EDDF-EDDM
Flight info
| Callsign | DLH6RX |
|---|---|
| Flight time | 0h 31m |
| Altitude | 23000 |
| Route | CINDY8S/18 CINDY Z74 HAREM T104 ROKIL ROKIL1A |
| Aircraft | A319/M-SDE3FGHIRWY/LB1 |
Departure
| Time | 2026-05-04 16:41 |
|---|---|
| Airport | Frankfurt Main Airport (EDDF) |
Arrival
| Time | 2026-05-04 17:13 |
|---|---|
| Airport | Munich Airport (EDDM) |
| Time | Latitude | Longitude | Altitude | Speed | Heading |
|---|---|---|---|---|---|
| 2026-05-04 16:14 | 50.04686 | 8.56703 | 356 ft | 0 kts | 115° |
| 2026-05-04 16:15 | 50.04687 | 8.56700 | 363 ft | 0 kts | 115° |
| 2026-05-04 16:28 | 50.04699 | 8.56661 | 361 ft | 3 kts | 115° |
| 2026-05-04 16:28 | 50.04752 | 8.56650 | 363 ft | 4 kts | 206° |
| 2026-05-04 16:29 | 50.04779 | 8.56671 | 363 ft | 0 kts | 205° |
| 2026-05-04 16:32 | 50.04702 | 8.56548 | 356 ft | 14 kts | 232° |
| 2026-05-04 16:33 | 50.04611 | 8.56203 | 359 ft | 19 kts | 250° |
| 2026-05-04 16:33 | 50.04457 | 8.55924 | 357 ft | 18 kts | 197° |
| 2026-05-04 16:34 | 50.04318 | 8.55942 | 358 ft | 1 kts | 160° |
| 2026-05-04 16:34 | 50.04315 | 8.55944 | 357 ft | 2 kts | 160° |
| 2026-05-04 16:35 | 50.04175 | 8.55671 | 356 ft | 21 kts | 249° |
| 2026-05-04 16:35 | 50.04013 | 8.54997 | 355 ft | 23 kts | 250° |
| 2026-05-04 16:36 | 50.03955 | 8.54750 | 352 ft | 25 kts | 250° |
| 2026-05-04 16:36 | 50.03801 | 8.54226 | 354 ft | 28 kts | 244° |
| 2026-05-04 16:37 | 50.03674 | 8.53690 | 349 ft | 22 kts | 249° |
| 2026-05-04 16:37 | 50.03619 | 8.53474 | 338 ft | 21 kts | 250° |
| 2026-05-04 16:37 | 50.03512 | 8.53030 | 337 ft | 21 kts | 250° |
| 2026-05-04 16:38 | 50.03442 | 8.52769 | 334 ft | 8 kts | 249° |
| 2026-05-04 16:39 | 50.03433 | 8.52730 | 333 ft | 0 kts | 250° |
| 2026-05-04 16:39 | 50.03422 | 8.52684 | 336 ft | 7 kts | 249° |
| 2026-05-04 16:40 | 50.03334 | 8.52593 | 336 ft | 0 kts | 180° |
| 2026-05-04 16:41 | 50.03324 | 8.52593 | 336 ft | 10 kts | 180° |
| 2026-05-04 16:41 | 50.00836 | 8.52614 | 1020 ft | 163 kts | 181° |
| 2026-05-04 16:42 | 49.97132 | 8.52956 | 2777 ft | 214 kts | 158° |
| 2026-05-04 16:43 | 49.95165 | 8.56747 | 3943 ft | 240 kts | 119° |
| 2026-05-04 16:43 | 49.93622 | 8.61499 | 4499 ft | 268 kts | 104° |
| 2026-05-04 16:43 | 49.93404 | 8.64364 | 5586 ft | 272 kts | 95° |
| 2026-05-04 16:44 | 49.89821 | 8.73963 | 9705 ft | 277 kts | 148° |
| 2026-05-04 16:45 | 49.87208 | 8.78735 | 10868 ft | 318 kts | 123° |
| 2026-05-04 16:46 | 49.83891 | 8.87988 | 11001 ft | 330 kts | 122° |
| 2026-05-04 16:46 | 49.81663 | 8.94192 | 11153 ft | 337 kts | 122° |
| 2026-05-04 16:47 | 49.79347 | 9.00562 | 13098 ft | 342 kts | 122° |
| 2026-05-04 16:47 | 49.76966 | 9.07088 | 14722 ft | 353 kts | 121° |
| 2026-05-04 16:48 | 49.74456 | 9.18119 | 16948 ft | 368 kts | 119° |
| 2026-05-04 16:48 | 49.73106 | 9.21483 | 17707 ft | 369 kts | 130° |
| 2026-05-04 16:49 | 49.69718 | 9.27532 | 19102 ft | 376 kts | 134° |
| 2026-05-04 16:49 | 49.66259 | 9.33632 | 20434 ft | 383 kts | 134° |
| 2026-05-04 16:50 | 49.62719 | 9.39867 | 21767 ft | 389 kts | 134° |
| 2026-05-04 16:50 | 49.59109 | 9.46221 | 22881 ft | 396 kts | 134° |
| 2026-05-04 16:51 | 49.55351 | 9.52815 | 22992 ft | 426 kts | 134° |
| 2026-05-04 16:51 | 49.53370 | 9.56279 | 22987 ft | 432 kts | 134° |
| 2026-05-04 16:51 | 49.49405 | 9.63227 | 22984 ft | 434 kts | 134° |
| 2026-05-04 16:52 | 49.45398 | 9.70242 | 22978 ft | 434 kts | 134° |
| 2026-05-04 16:52 | 49.43421 | 9.73690 | 22978 ft | 434 kts | 134° |
| 2026-05-04 16:53 | 49.39424 | 9.80622 | 22973 ft | 434 kts | 134° |
| 2026-05-04 16:53 | 49.33420 | 9.91002 | 22958 ft | 434 kts | 134° |
| 2026-05-04 16:54 | 49.31409 | 9.94469 | 22956 ft | 435 kts | 135° |
| 2026-05-04 16:55 | 49.23364 | 10.08300 | 22980 ft | 433 kts | 135° |
| 2026-05-04 16:55 | 49.19353 | 10.15138 | 22977 ft | 433 kts | 135° |
| 2026-05-04 16:56 | 49.15343 | 10.21974 | 22959 ft | 433 kts | 135° |
| 2026-05-04 16:56 | 49.09213 | 10.32099 | 22964 ft | 433 kts | 136° |
| 2026-05-04 16:57 | 49.07119 | 10.35426 | 22960 ft | 433 kts | 137° |
| 2026-05-04 16:57 | 49.02939 | 10.42057 | 22973 ft | 433 kts | 137° |
| 2026-05-04 16:58 | 48.96762 | 10.51922 | 21663 ft | 425 kts | 136° |
| 2026-05-04 16:58 | 48.94725 | 10.55171 | 21100 ft | 422 kts | 136° |
| 2026-05-04 16:59 | 48.90691 | 10.61599 | 19988 ft | 418 kts | 136° |
| 2026-05-04 17:00 | 48.82960 | 10.73863 | 18536 ft | 386 kts | 137° |
| 2026-05-04 17:00 | 48.77206 | 10.81769 | 17638 ft | 353 kts | 144° |
| 2026-05-04 17:01 | 48.73455 | 10.86359 | 16770 ft | 345 kts | 144° |
| 2026-05-04 17:01 | 48.69699 | 10.90900 | 15660 ft | 345 kts | 144° |
| 2026-05-04 17:02 | 48.65926 | 10.95412 | 14527 ft | 345 kts | 144° |
| 2026-05-04 17:02 | 48.62159 | 10.99889 | 13391 ft | 343 kts | 144° |
| 2026-05-04 17:03 | 48.60308 | 11.02077 | 12792 ft | 341 kts | 144° |
| 2026-05-04 17:03 | 48.58444 | 11.04285 | 12194 ft | 339 kts | 144° |
| 2026-05-04 17:03 | 48.54748 | 11.08679 | 11039 ft | 335 kts | 144° |
| 2026-05-04 17:04 | 48.51138 | 11.13031 | 9912 ft | 329 kts | 144° |
| 2026-05-04 17:04 | 48.47694 | 11.17209 | 8723 ft | 305 kts | 144° |
| 2026-05-04 17:05 | 48.44570 | 11.20946 | 8029 ft | 275 kts | 144° |
| 2026-05-04 17:05 | 48.41578 | 11.24412 | 6844 ft | 268 kts | 144° |
| 2026-05-04 17:06 | 48.38568 | 11.27757 | 5858 ft | 269 kts | 144° |
| 2026-05-04 17:06 | 48.37264 | 11.29705 | 5406 ft | 268 kts | 122° |
| 2026-05-04 17:07 | 48.35641 | 11.34713 | 4581 ft | 264 kts | 114° |
| 2026-05-04 17:07 | 48.35129 | 11.36373 | 4297 ft | 264 kts | 114° |
| 2026-05-04 17:07 | 48.34127 | 11.39594 | 4129 ft | 247 kts | 114° |
| 2026-05-04 17:07 | 48.33623 | 11.41985 | 4016 ft | 232 kts | 95° |
| 2026-05-04 17:08 | 48.33714 | 11.44323 | 4003 ft | 215 kts | 83° |
| 2026-05-04 17:08 | 48.34056 | 11.48580 | 4008 ft | 204 kts | 83° |
| 2026-05-04 17:08 | 48.34225 | 11.50695 | 4009 ft | 204 kts | 83° |
| 2026-05-04 17:09 | 48.34394 | 11.52815 | 3999 ft | 203 kts | 83° |
| 2026-05-04 17:09 | 48.34563 | 11.54939 | 4009 ft | 204 kts | 83° |
| 2026-05-04 17:09 | 48.34728 | 11.57027 | 3959 ft | 204 kts | 83° |
| 2026-05-04 17:10 | 48.35064 | 11.61265 | 3513 ft | 203 kts | 83° |
| 2026-05-04 17:10 | 48.35548 | 11.67431 | 2739 ft | 185 kts | 83° |
| 2026-05-04 17:11 | 48.35693 | 11.69269 | 2497 ft | 168 kts | 82° |
| 2026-05-04 17:11 | 48.35820 | 11.70893 | 2298 ft | 146 kts | 80° |
| 2026-05-04 17:11 | 48.36041 | 11.73722 | 1885 ft | 132 kts | 82° |
| 2026-05-04 17:12 | 48.36145 | 11.75085 | 1736 ft | 130 kts | 82° |
| 2026-05-04 17:12 | 48.36356 | 11.77736 | 1464 ft | 117 kts | 83° |
| 2026-05-04 17:13 | 48.36492 | 11.80034 | 1461 ft | 39 kts | 107° |
| 2026-05-04 17:14 | 48.36365 | 11.80475 | 1458 ft | 0 kts | 115° |
| 2026-05-04 17:14 | 48.36363 | 11.80480 | 1459 ft | 2 kts | 116° |
| 2026-05-04 17:14 | 48.36280 | 11.80332 | 1465 ft | 17 kts | 263° |
| 2026-05-04 17:15 | 48.36266 | 11.80149 | 1468 ft | 18 kts | 263° |
| 2026-05-04 17:15 | 48.36235 | 11.79754 | 1463 ft | 20 kts | 263° |
| 2026-05-04 17:16 | 48.36205 | 11.79363 | 1468 ft | 11 kts | 263° |
| 2026-05-04 17:16 | 48.36145 | 11.79307 | 1465 ft | 0 kts | 172° |
| 2026-05-04 17:18 | 48.36130 | 11.79310 | 1462 ft | 3 kts | 172° |
| 2026-05-04 17:18 | 48.36095 | 11.79364 | 1465 ft | 6 kts | 90° |
| 2026-05-04 17:19 | 48.36043 | 11.79489 | 1461 ft | 10 kts | 172° |
| 2026-05-04 17:19 | 48.35882 | 11.79519 | 1465 ft | 12 kts | 174° |
| 2026-05-04 17:20 | 48.35824 | 11.79641 | 1467 ft | 11 kts | 84° |
| 2026-05-04 17:20 | 48.35841 | 11.79856 | 1465 ft | 13 kts | 84° |
| 2026-05-04 17:20 | 48.35849 | 11.79978 | 1465 ft | 11 kts | 87° |
| 2026-05-04 17:21 | 48.35735 | 11.80072 | 1466 ft | 12 kts | 173° |
| 2026-05-04 17:21 | 48.35552 | 11.80146 | 1467 ft | 15 kts | 173° |
| 2026-05-04 17:22 | 48.35418 | 11.80156 | 1460 ft | 13 kts | 199° |
| 2026-05-04 17:22 | 48.35388 | 11.80088 | 1467 ft | 12 kts | 260° |
| 2026-05-04 17:23 | 48.35382 | 11.80024 | 1465 ft | 0 kts | 263° |